createdAt,value
2023-10-27T00:01:31.478Z,99845.34
2023-10-27T00:03:58.661Z,99860.91
2023-10-27T00:06:25.908Z,99855.66
2023-10-27T00:08:53.045Z,99849.69
2023-10-27T00:11:20.347Z,99851.34
2023-10-27T00:13:47.454Z,99853.94
2023-10-27T00:16:15.844Z,99853.94
2023-10-27T00:18:43.148Z,99850.44
2023-10-27T00:21:10.809Z,99843.47
2023-10-27T00:23:37.896Z,99854.75
2023-10-27T00:26:05.125Z,99842.47
2023-10-27T00:28:32.937Z,99852.16
2023-10-27T00:31:03.558Z,99835.63
2023-10-27T00:33:30.838Z,99835.50
2023-10-27T00:35:57.973Z,99835.50
2023-10-27T00:38:25.117Z,99837.19
2023-10-27T00:40:52.238Z,99831.09
2023-10-27T00:43:19.621Z,99823.41
2023-10-27T00:45:50.356Z,99821.66
2023-10-27T00:48:19.444Z,99817.31
2023-10-27T00:50:47.192Z,99818.19
2023-10-27T00:53:21.881Z,99821.66
2023-10-27T00:55:51.019Z,99820.75
2023-10-27T00:58:20.335Z,99810.44
2023-10-27T01:00:47.540Z,99812.94
2023-10-27T01:03:14.831Z,99818.19
2023-10-27T01:05:41.873Z,99813.06
2023-10-27T01:08:09.045Z,99813.81
2023-10-27T01:10:36.265Z,99808.66
2023-10-27T01:13:03.515Z,99806.94
2023-10-27T01:15:31.472Z,99800.09
2023-10-27T01:17:58.775Z,99795.66
2023-10-27T01:20:26.273Z,99789.72
2023-10-27T01:22:53.662Z,99780.94
2023-10-27T01:25:20.813Z,99790.47
2023-10-27T01:27:48.050Z,99782.69
2023-10-27T01:30:15.172Z,99785.22
2023-10-27T01:32:44.465Z,99772.22
2023-10-27T01:35:12.215Z,99773.13
2023-10-27T01:37:39.338Z,99762.03
2023-10-27T01:40:07.240Z,99771.53
2023-10-27T01:42:36.133Z,99767.31
2023-10-27T01:45:05.869Z,99756.03
2023-10-27T01:47:33.981Z,99750.03
2023-10-27T01:50:01.747Z,99751.66
2023-10-27T01:52:28.924Z,99746.44
2023-10-27T01:54:56.302Z,99741.28
2023-10-27T01:57:24.755Z,99739.41
2023-10-27T01:59:52.228Z,99735.88
2023-10-27T02:02:20.033Z,99718.78
2023-10-27T02:04:47.449Z,99730.81
2023-10-27T02:07:16.276Z,99734.25
2023-10-27T02:09:44.928Z,99748.16
2023-10-27T02:12:12.479Z,99741.19
2023-10-27T02:14:40.172Z,99744.72
2023-10-27T02:17:07.823Z,99737.78
2023-10-27T02:19:35.188Z,99741.25
2023-10-27T02:22:02.407Z,99735.13
2023-10-27T02:24:29.656Z,99733.41
2023-10-27T02:26:59.084Z,99729.13
2023-10-27T02:29:27.112Z,99722.97
2023-10-27T02:31:54.193Z,99730.81
2023-10-27T02:34:21.458Z,99720.44
2023-10-27T02:36:48.759Z,99719.66
2023-10-27T02:39:15.863Z,99719.50
2023-10-27T02:41:43.070Z,99729.13
2023-10-27T02:44:10.281Z,99728.25
2023-10-27T02:46:37.684Z,99739.56
2023-10-27T02:49:05.290Z,99743.03
2023-10-27T02:51:33.706Z,99744.75
2023-10-27T02:54:00.858Z,99743.88
2023-10-27T02:56:28.124Z,99737.97
2023-10-27T02:58:55.191Z,99746.53
2023-10-27T03:01:22.417Z,99746.53
2023-10-27T03:03:49.496Z,99754.41
2023-10-27T03:06:16.546Z,99746.53
2023-10-27T03:08:43.800Z,99735.31
2023-10-27T03:11:10.921Z,99735.19
2023-10-27T03:13:38.907Z,99744.72
2023-10-27T03:16:06.440Z,99743.00
2023-10-27T03:18:33.918Z,99742.16
2023-10-27T03:21:04.972Z,99733.47
2023-10-27T03:23:32.431Z,99725.78
2023-10-27T03:25:59.779Z,99724.00
2023-10-27T03:28:27.018Z,99718.84
2023-10-27T03:30:54.487Z,99721.47
2023-10-27T03:33:21.720Z,99721.50
2023-10-27T03:35:49.255Z,99725.91
2023-10-27T03:38:17.180Z,99729.50
2023-10-27T03:40:45.944Z,99726.03
2023-10-27T03:43:13.084Z,99734.75
2023-10-27T03:45:40.319Z,99735.56
2023-10-27T03:48:07.626Z,99737.28
2023-10-27T03:50:36.258Z,99739.84
2023-10-27T03:53:04.296Z,99748.56
2023-10-27T03:55:31.785Z,99746.78
2023-10-27T03:58:14.823Z,99736.41
2023-10-27T04:00:42.359Z,99740.63
2023-10-27T04:03:09.938Z,99746.69
2023-10-27T04:05:37.615Z,99749.22
2023-10-27T04:08:06.036Z,99743.00
2023-10-27T04:10:35.661Z,99738.59
2023-10-27T04:13:03.528Z,99745.50
2023-10-27T04:15:30.819Z,99743.78
2023-10-27T04:17:58.010Z,99737.84
2023-10-27T04:20:25.155Z,99740.34
2023-10-27T04:22:52.322Z,99735.16
2023-10-27T04:25:19.531Z,99744.72
2023-10-27T04:27:46.761Z,99733.53
2023-10-27T04:30:14.416Z,99737.78
2023-10-27T04:32:42.564Z,99738.84
2023-10-27T04:35:10.972Z,99751.72
2023-10-27T04:37:38.106Z,99755.19
2023-10-27T04:40:06.110Z,99740.47
2023-10-27T04:42:33.302Z,99746.59
2023-10-27T04:45:00.614Z,99750.84
2023-10-27T04:47:27.761Z,99748.31
2023-10-27T04:49:55.713Z,99741.44
2023-10-27T04:52:22.880Z,99755.19
2023-10-27T04:54:50.049Z,99760.38
2023-10-27T04:57:17.219Z,99763.06
2023-10-27T04:59:44.572Z,99769.97
2023-10-27T05:02:11.875Z,99769.06
2023-10-27T05:04:39.040Z,99769.97
2023-10-27T05:07:07.033Z,99760.53
2023-10-27T05:09:34.502Z,99759.59
2023-10-27T05:12:03.639Z,99768.13
2023-10-27T05:14:30.701Z,99763.81
2023-10-27T05:16:57.777Z,99763.81
2023-10-27T05:19:25.664Z,99756.81
2023-10-27T05:21:52.871Z,99752.44
2023-10-27T05:24:19.929Z,99762.84
2023-10-27T05:26:47.050Z,99752.38
2023-10-27T05:29:14.138Z,99753.25
2023-10-27T05:31:42.233Z,99749.75
2023-10-27T05:34:09.570Z,99748.03
2023-10-27T05:36:36.781Z,99751.59
2023-10-27T05:39:04.143Z,99755.09
2023-10-27T05:41:31.425Z,99758.63
2023-10-27T05:43:58.486Z,99750.03
2023-10-27T05:46:25.655Z,99765.56
2023-10-27T05:48:53.053Z,99765.56
2023-10-27T05:51:20.312Z,99764.75
2023-10-27T05:53:47.595Z,99756.09
2023-10-27T05:56:14.682Z,99762.22
2023-10-27T05:58:41.966Z,99756.91
2023-10-27T06:01:09.107Z,99758.69
2023-10-27T06:03:36.258Z,99762.13
2023-10-27T06:06:04.725Z,99764.81
2023-10-27T06:08:31.949Z,99767.34
2023-10-27T06:10:59.070Z,99765.66
2023-10-27T06:13:26.208Z,99768.25
2023-10-27T06:15:53.452Z,99759.59
2023-10-27T06:18:21.186Z,99764.69
2023-10-27T06:20:48.409Z,99763.81
2023-10-27T06:23:15.869Z,99770.75
2023-10-27T06:25:43.187Z,99762.03
2023-10-27T06:28:10.394Z,99763.72
2023-10-27T06:30:37.537Z,99764.66
2023-10-27T06:33:04.920Z,99768.97
2023-10-27T06:35:32.204Z,99760.28
2023-10-27T06:37:59.672Z,99760.22
2023-10-27T06:40:26.837Z,99760.22
2023-10-27T06:42:54.185Z,99759.44
2023-10-27T06:45:21.310Z,99763.66
2023-10-27T06:47:48.669Z,99765.38
2023-10-27T06:50:16.917Z,99769.72
2023-10-27T06:52:44.006Z,99763.66
2023-10-27T06:55:11.200Z,99768.88
2023-10-27T06:57:38.895Z,99772.31
2023-10-27T07:00:08.086Z,99769.78
2023-10-27T07:02:49.495Z,99773.25
2023-10-27T07:05:22.555Z,99770.69
2023-10-27T07:07:49.773Z,99770.69
2023-10-27T07:10:17.405Z,99777.53
2023-10-27T07:12:48.178Z,99777.47
2023-10-27T07:15:15.557Z,99779.09
2023-10-27T07:17:43.016Z,99775.53
2023-10-27T07:20:11.130Z,99769.44
2023-10-27T07:22:38.593Z,99778.88
2023-10-27T07:25:06.228Z,99770.31
2023-10-27T07:27:34.810Z,99771.03
2023-10-27T07:30:02.178Z,99780.56
2023-10-27T07:32:29.345Z,99778.88
2023-10-27T07:34:56.744Z,99778.03
2023-10-27T07:37:24.741Z,99777.06
2023-10-27T07:39:51.940Z,99774.44
2023-10-27T07:42:19.057Z,99768.31
2023-10-27T07:44:46.464Z,99728.94
2023-10-27T07:47:15.531Z,99757.19
2023-10-27T07:49:42.844Z,99765.72
2023-10-27T07:52:10.389Z,99761.44
2023-10-27T07:54:38.295Z,99755.34
2023-10-27T07:57:06.217Z,99756.25
2023-10-27T07:59:33.471Z,99741.72
2023-10-27T08:02:02.216Z,99740.75
2023-10-27T08:04:33.580Z,99749.38
2023-10-27T08:07:00.755Z,99754.53
2023-10-27T08:09:30.835Z,99751.00
2023-10-27T08:11:58.809Z,99750.03
2023-10-27T08:14:26.183Z,99747.38
2023-10-27T08:16:54.111Z,99742.13
2023-10-27T08:19:21.404Z,99750.88
2023-10-27T08:21:49.867Z,99760.38
2023-10-27T08:24:17.240Z,99740.34
2023-10-27T08:26:44.666Z,99752.47
2023-10-27T08:29:11.978Z,99759.25
2023-10-27T08:31:39.521Z,99752.13
2023-10-27T08:34:12.217Z,99750.38
2023-10-27T08:36:40.413Z,99755.66
2023-10-27T08:39:07.579Z,99761.84
2023-10-27T08:41:39.785Z,99762.59
2023-10-27T08:44:24.220Z,99741.75
2023-10-27T08:46:55.011Z,99758.88
2023-10-27T08:49:26.265Z,99757.03
2023-10-27T08:51:53.525Z,99759.56
2023-10-27T08:54:21.242Z,99758.78
2023-10-27T08:56:48.752Z,99757.94
2023-10-27T08:59:15.906Z,99750.13
2023-10-27T09:01:44.693Z,99749.25
2023-10-27T09:04:17.426Z,99741.41
2023-10-27T09:06:44.610Z,99759.34
2023-10-27T09:09:11.988Z,99759.28
2023-10-27T09:11:49.947Z,99762.50
2023-10-27T09:14:31.630Z,99766.66
2023-10-27T09:17:12.267Z,99770.16
2023-10-27T09:19:40.706Z,99768.47
2023-10-27T09:22:23.731Z,99764.22
2023-10-27T09:24:54.220Z,99760.69
2023-10-27T09:27:28.252Z,99768.34
2023-10-27T09:29:55.924Z,99763.09
2023-10-27T09:32:27.772Z,99768.16
2023-10-27T09:35:14.569Z,99764.81
2023-10-27T09:37:42.713Z,99768.84
2023-10-27T09:40:12.513Z,99770.50
2023-10-27T09:42:41.304Z,99772.16
2023-10-27T09:45:15.054Z,99772.00
2023-10-27T09:47:42.505Z,99778.84
2023-10-27T09:50:21.019Z,99772.72
2023-10-27T09:52:51.113Z,99765.66
2023-10-27T09:55:20.430Z,99763.00
2023-10-27T09:57:48.917Z,99751.81
2023-10-27T10:00:26.201Z,99776.69
2023-10-27T10:02:53.655Z,99770.53
2023-10-27T10:05:21.054Z,99752.53
2023-10-27T10:07:58.271Z,99749.13
2023-10-27T10:10:33.148Z,99773.38
2023-10-27T10:13:18.810Z,99769.25
2023-10-27T10:15:48.264Z,99767.03
2023-10-27T10:18:21.394Z,99767.81
2023-10-27T10:20:57.503Z,99763.47
2023-10-27T10:23:48.988Z,99770.59
2023-10-27T10:26:16.980Z,99768.03
2023-10-27T10:28:47.402Z,99765.41
2023-10-27T10:31:14.656Z,99765.41
2023-10-27T10:33:45.441Z,99768.03
2023-10-27T10:36:15.763Z,99772.34
2023-10-27T10:39:11.558Z,99769.75
2023-10-27T10:41:54.517Z,99761.94
2023-10-27T10:44:22.195Z,99767.25
2023-10-27T10:46:51.048Z,99754.34
2023-10-27T10:49:28.156Z,99762.88
2023-10-27T10:51:59.390Z,99762.03
2023-10-27T10:54:33.553Z,99768.97
2023-10-27T10:57:16.573Z,99765.50
2023-10-27T10:59:55.800Z,99768.25
2023-10-27T11:02:23.155Z,99760.38
2023-10-27T11:04:50.716Z,99773.34
2023-10-27T11:07:19.709Z,99760.22
2023-10-27T11:09:47.092Z,99758.38
2023-10-27T11:12:30.041Z,99750.47
2023-10-27T11:14:57.163Z,99749.41
2023-10-27T11:17:24.236Z,99753.81
2023-10-27T11:19:55.638Z,99753.94
2023-10-27T11:22:25.658Z,99747.28
2023-10-27T11:24:53.748Z,99753.44
2023-10-27T11:27:26.438Z,99747.44
2023-10-27T11:30:03.913Z,99735.41
2023-10-27T11:32:31.328Z,99738.81
2023-10-27T11:34:59.604Z,99744.13
2023-10-27T11:37:27.954Z,99728.66
2023-10-27T11:39:55.477Z,99739.97
2023-10-27T11:42:23.169Z,99735.72
2023-10-27T11:44:50.241Z,99721.16
2023-10-27T11:47:18.460Z,99741.97
2023-10-27T11:49:45.835Z,99748.09
2023-10-27T11:52:15.836Z,99740.19
2023-10-27T11:54:43.014Z,99747.88
2023-10-27T11:57:10.883Z,99742.78
2023-10-27T11:59:38.063Z,99739.31
2023-10-27T12:02:05.174Z,99748.00
2023-10-27T12:04:32.279Z,99745.47
2023-10-27T12:06:59.376Z,99737.63
2023-10-27T12:09:26.653Z,99745.44
2023-10-27T12:11:53.749Z,99751.53
2023-10-27T12:14:21.957Z,99740.41
2023-10-27T12:16:49.187Z,99751.56
2023-10-27T12:19:16.497Z,99752.47
2023-10-27T12:21:43.675Z,99753.34
2023-10-27T12:24:12.182Z,99742.97
2023-10-27T12:26:39.322Z,99758.56
2023-10-27T12:29:06.500Z,99767.28
2023-10-27T12:31:34.264Z,99753.44
2023-10-27T12:34:01.696Z,99756.84
2023-10-27T12:36:28.993Z,99763.81
2023-10-27T12:38:56.143Z,99763.81
2023-10-27T12:41:23.245Z,99764.72
2023-10-27T12:43:51.659Z,99760.28
2023-10-27T12:46:18.933Z,99769.03
2023-10-27T12:48:48.418Z,99764.88
2023-10-27T12:51:17.943Z,99763.28
2023-10-27T12:53:45.127Z,99764.63
2023-10-27T12:56:12.453Z,99767.22
2023-10-27T12:58:39.688Z,99768.22
2023-10-27T13:01:07.881Z,99766.50
2023-10-27T13:03:35.271Z,99716.84
2023-10-27T13:06:03.289Z,99757.84
2023-10-27T13:08:30.557Z,99770.91
2023-10-27T13:11:04.156Z,99761.47
2023-10-27T13:13:31.694Z,99758.94
2023-10-27T13:15:58.780Z,99773.75
2023-10-27T13:18:26.523Z,99758.97
2023-10-27T13:20:53.783Z,99756.56
2023-10-27T13:23:20.881Z,99765.28
2023-10-27T13:25:48.009Z,99772.22
2023-10-27T13:28:16.172Z,99760.91
2023-10-27T13:30:47.609Z,99761.94
2023-10-27T13:33:14.950Z,99774.03
2023-10-27T13:35:42.190Z,99772.31
2023-10-27T13:38:09.343Z,99764.66
2023-10-27T13:40:40.605Z,99774.19
2023-10-27T13:43:07.951Z,99778.63
2023-10-27T13:45:36.919Z,99728.16
2023-10-27T13:48:04.669Z,99774.34
2023-10-27T13:50:33.252Z,99780.47
2023-10-27T13:53:00.410Z,99774.38
2023-10-27T13:55:27.565Z,99778.81
2023-10-27T13:57:54.718Z,99780.53
2023-10-27T14:00:27.511Z,99784.94
2023-10-27T14:02:57.983Z,99777.91
2023-10-27T14:05:25.371Z,99787.22
2023-10-27T14:07:53.014Z,99787.19
2023-10-27T14:10:20.419Z,99793.22
2023-10-27T14:12:48.936Z,99789.72
2023-10-27T14:15:20.820Z,99788.00
2023-10-27T14:17:50.688Z,99787.09
2023-10-27T14:20:19.722Z,99786.19
2023-10-27T14:22:46.931Z,99783.53
2023-10-27T14:25:14.151Z,99784.50
2023-10-27T14:27:41.553Z,99784.50
2023-10-27T14:30:09.653Z,99792.25
2023-10-27T14:32:36.784Z,99792.19
2023-10-27T14:35:04.825Z,99786.91
2023-10-27T14:37:32.687Z,99789.53
2023-10-27T14:40:05.065Z,99794.66
2023-10-27T14:42:32.248Z,99791.19
2023-10-27T14:45:00.075Z,99791.16
2023-10-27T14:47:42.348Z,99795.47
2023-10-27T14:50:12.121Z,99795.44
2023-10-27T14:52:39.313Z,99795.38
2023-10-27T14:55:06.910Z,99797.91
2023-10-27T14:57:34.628Z,99790.06
2023-10-27T15:00:04.502Z,99786.56
2023-10-27T15:02:31.854Z,99779.78
2023-10-27T15:04:59.157Z,99783.19
2023-10-27T15:07:26.422Z,99782.25
2023-10-27T15:09:54.029Z,99785.88
2023-10-27T15:12:22.434Z,99795.31
2023-10-27T15:14:51.594Z,99799.69
2023-10-27T15:17:18.972Z,99784.28
2023-10-27T15:19:46.820Z,99799.75
2023-10-27T15:22:13.980Z,99799.81
2023-10-27T15:24:41.089Z,99798.88
2023-10-27T15:27:08.191Z,99789.47
2023-10-27T15:29:35.368Z,99798.97
2023-10-27T15:32:03.547Z,99796.38
2023-10-27T15:34:31.265Z,99805.06
2023-10-27T15:36:59.245Z,99795.59
2023-10-27T15:39:27.699Z,99801.56
2023-10-27T15:41:57.371Z,99799.94
2023-10-27T15:44:24.519Z,99813.03
2023-10-27T15:46:52.000Z,99803.50
2023-10-27T15:49:19.235Z,99796.75
2023-10-27T15:51:46.977Z,99810.56
2023-10-27T15:54:14.666Z,99810.59
2023-10-27T15:56:42.868Z,99810.66
2023-10-27T15:59:10.085Z,99817.69
2023-10-27T16:01:37.348Z,99816.00
2023-10-27T16:04:06.333Z,99820.38
2023-10-27T16:06:33.683Z,99811.75
2023-10-27T16:09:04.728Z,99815.09
2023-10-27T16:11:34.992Z,99810.72
2023-10-27T16:14:02.050Z,99817.59
2023-10-27T16:16:29.496Z,99817.59
2023-10-27T16:18:59.726Z,99818.50
2023-10-27T16:21:27.060Z,99821.13
2023-10-27T16:23:56.141Z,99831.66
2023-10-27T16:26:23.789Z,99830.81
2023-10-27T16:28:51.024Z,99820.59
2023-10-27T16:31:18.294Z,99836.13
2023-10-27T16:33:45.660Z,99837.91
2023-10-27T16:36:12.887Z,99826.72
2023-10-27T16:38:40.837Z,99831.94
2023-10-27T16:41:08.231Z,99827.59
2023-10-27T16:43:38.354Z,99826.69
2023-10-27T16:46:08.290Z,99843.91
2023-10-27T16:48:36.019Z,99844.78
2023-10-27T16:51:16.335Z,99835.41
2023-10-27T16:53:44.282Z,99848.44
2023-10-27T16:56:18.748Z,99842.38
2023-10-27T16:58:45.892Z,99847.63
2023-10-27T17:01:13.528Z,99853.75
2023-10-27T17:03:43.359Z,99852.94
2023-10-27T17:06:10.601Z,99853.03
2023-10-27T17:08:38.421Z,99848.78
2023-10-27T17:11:06.994Z,99852.22
2023-10-27T17:13:34.528Z,99860.03
2023-10-27T17:16:10.998Z,99859.16
2023-10-27T17:18:43.788Z,99856.56
2023-10-27T17:21:22.163Z,99866.19
2023-10-27T17:23:56.027Z,99868.00
2023-10-27T17:26:23.461Z,99859.41
2023-10-27T17:28:50.640Z,99862.75
2023-10-27T17:31:24.230Z,99850.72
2023-10-27T17:33:59.217Z,99865.34
2023-10-27T17:36:29.019Z,99860.16
2023-10-27T17:38:56.944Z,99861.03
2023-10-27T17:41:24.944Z,99862.88
2023-10-27T17:43:52.268Z,99866.31
2023-10-27T17:46:19.464Z,99864.66
2023-10-27T17:48:49.932Z,99873.22
2023-10-27T17:51:17.473Z,99855.16
2023-10-27T17:53:44.802Z,99866.41
2023-10-27T17:56:12.720Z,99850.13
2023-10-27T17:58:40.180Z,99873.31
2023-10-27T18:01:10.681Z,99877.72
2023-10-27T18:03:40.704Z,99860.63
2023-10-27T18:06:16.428Z,99878.75
2023-10-27T18:08:45.631Z,99877.13
2023-10-27T18:15:31.530Z,99872.94
2023-10-27T18:17:59.076Z,99877.25
2023-10-27T18:20:39.350Z,99843.97
2023-10-27T18:23:11.010Z,99865.34
2023-10-27T18:25:39.400Z,99862.72
2023-10-27T18:28:08.227Z,99872.34
2023-10-27T18:30:36.219Z,99885.34
2023-10-27T18:33:07.750Z,99874.94
2023-10-27T18:35:37.719Z,99869.06
2023-10-27T18:38:10.315Z,99870.69
2023-10-27T18:40:37.763Z,99868.09
2023-10-27T18:43:05.317Z,99849.22
2023-10-27T18:45:32.533Z,99865.53
2023-10-27T18:47:59.893Z,99846.66
2023-10-27T18:50:27.612Z,99861.41
2023-10-27T18:52:54.919Z,99867.53
2023-10-27T18:55:22.543Z,99849.63
2023-10-27T18:57:50.441Z,99851.31
2023-10-27T19:00:21.546Z,99857.41
2023-10-27T19:02:50.080Z,99867.75
2023-10-27T19:05:19.653Z,99863.47
2023-10-27T19:07:48.994Z,99876.38
2023-10-27T19:10:16.321Z,99872.13
2023-10-27T19:12:45.349Z,99880.81
2023-10-27T19:15:14.558Z,99898.78
2023-10-27T19:17:44.951Z,99859.31
2023-10-27T19:20:12.988Z,99869.69
2023-10-27T19:22:44.317Z,99864.53
2023-10-27T19:25:11.722Z,99896.41
2023-10-27T19:27:40.985Z,99911.03
2023-10-27T19:30:08.913Z,99893.03
2023-10-27T19:32:40.492Z,99891.41
2023-10-27T19:35:16.611Z,99893.03
2023-10-27T19:37:44.465Z,99900.81
2023-10-27T19:40:14.318Z,99902.63
2023-10-27T19:42:42.345Z,99893.94
2023-10-27T19:45:13.816Z,99930.28
2023-10-27T19:47:41.151Z,99911.31
2023-10-27T19:50:11.069Z,99908.03
2023-10-27T19:52:39.051Z,99901.88
2023-10-27T19:55:08.843Z,99895.91
2023-10-27T19:57:36.224Z,99909.66
2023-10-27T20:00:06.380Z,99917.34
2023-10-27T20:02:34.226Z,99902.69
2023-10-27T20:05:01.465Z,99929.34
2023-10-27T20:07:29.056Z,99912.22
2023-10-27T20:09:57.028Z,99933.75
2023-10-27T20:12:24.362Z,99937.22
2023-10-27T20:14:51.635Z,99927.03
2023-10-27T20:17:19.218Z,99913.31
2023-10-27T20:19:48.476Z,99926.13
2023-10-27T20:22:15.945Z,99925.31
2023-10-27T20:24:43.242Z,99914.97
2023-10-27T20:27:10.523Z,99921.19
2023-10-27T20:29:37.975Z,99906.56
2023-10-27T20:32:06.054Z,99907.41
2023-10-27T20:34:33.509Z,99909.19
2023-10-27T20:37:01.120Z,99901.41
2023-10-27T20:39:29.404Z,99938.28
2023-10-27T20:41:58.101Z,99938.44
2023-10-27T20:44:26.637Z,99948.81
2023-10-27T20:46:53.984Z,99916.97
2023-10-27T20:49:21.313Z,99930.81
2023-10-27T20:51:48.569Z,99946.38
2023-10-27T20:54:15.830Z,99944.63
2023-10-27T20:56:43.086Z,99949.09
2023-10-27T20:59:10.558Z,99942.19
2023-10-27T21:01:38.129Z,99932.69
2023-10-27T21:04:05.961Z,99943.09
2023-10-27T21:06:33.362Z,99942.19
2023-10-27T21:09:01.412Z,99925.00
2023-10-27T21:11:28.700Z,99949.06
2023-10-27T21:13:56.174Z,99940.38
2023-10-27T21:16:23.532Z,99935.31
2023-10-27T21:18:50.834Z,99950.75
2023-10-27T21:21:19.259Z,99949.78
2023-10-27T21:23:47.040Z,99946.53
2023-10-27T21:26:14.744Z,99938.88
2023-10-27T21:28:42.054Z,99930.38
2023-10-27T21:31:09.564Z,99962.16
2023-10-27T21:33:37.248Z,99948.53
2023-10-27T21:36:09.426Z,99956.25
2023-10-27T21:38:36.992Z,99954.66
2023-10-27T21:41:05.418Z,99932.34
2023-10-27T21:43:34.001Z,99912.50
2023-10-27T21:46:01.986Z,99923.78
2023-10-27T21:48:30.093Z,99942.72
2023-10-27T21:51:06.669Z,99961.59
2023-10-27T21:53:35.905Z,99958.34
2023-10-27T21:56:03.922Z,99960.94
2023-10-27T21:58:31.961Z,99921.38
2023-10-27T22:01:00.369Z,99917.03
2023-10-27T22:03:30.370Z,99953.03
2023-10-27T22:06:02.357Z,99949.63
2023-10-27T22:11:18.761Z,99966.78
2023-10-27T22:13:48.401Z,99935.94
2023-10-27T22:16:22.195Z,99933.34
2023-10-27T22:21:35.934Z,99956.63
2023-10-27T22:24:06.489Z,99954.91
2023-10-27T22:26:36.878Z,99957.50
2023-10-27T22:29:06.428Z,99953.19
2023-10-27T22:31:35.913Z,99956.59
2023-10-27T22:39:32.154Z,99956.50
2023-10-27T22:42:02.541Z,99961.69
2023-10-27T22:44:32.298Z,99953.19
2023-10-27T22:49:44.845Z,99966.09
2023-10-27T22:52:12.546Z,99954.91
2023-10-27T22:54:39.956Z,99960.94
2023-10-27T22:57:07.190Z,99960.97
2023-10-27T22:59:34.804Z,99943.69
2023-10-27T23:02:02.082Z,99948.03
2023-10-27T23:04:29.338Z,99950.72
2023-10-27T23:06:57.705Z,99955.75
2023-10-27T23:09:26.229Z,99971.31
2023-10-27T23:11:53.465Z,99955.63
2023-10-27T23:14:23.909Z,99959.09
2023-10-27T23:16:51.305Z,99956.59
2023-10-27T23:19:18.537Z,99945.47
2023-10-27T23:21:46.150Z,99971.38
2023-10-27T23:24:13.548Z,99954.84
2023-10-27T23:26:40.751Z,99964.41
2023-10-27T23:29:10.896Z,99946.31
2023-10-27T23:31:38.503Z,99954.91
2023-10-27T23:34:06.953Z,99950.53
2023-10-27T23:36:34.310Z,99964.31
2023-10-27T23:39:01.534Z,99960.00
2023-10-27T23:41:30.056Z,99939.38
2023-10-27T23:43:57.538Z,99964.22
2023-10-27T23:46:25.958Z,99948.03
2023-10-27T23:48:53.385Z,99948.88
2023-10-27T23:51:20.639Z,99958.25
2023-10-27T23:53:47.921Z,99960.81
2023-10-27T23:56:16.214Z,99953.03
2023-10-27T23:58:44.136Z,99961.56
